sensor_id;sensor_type;location;lat;lon;timestamp;temperature;humidity
51619;DHT22;38518;53.164;5.430;2023-01-16T00:01:55;4.80;1.00
51619;DHT22;38518;53.164;5.430;2023-01-16T00:04:22;3.90;99.90
51619;DHT22;38518;53.164;5.430;2023-01-16T00:06:48;3.60;1.00
51619;DHT22;38518;53.164;5.430;2023-01-16T00:09:14;3.90;1.00
51619;DHT22;38518;53.164;5.430;2023-01-16T00:11:40;2.40;1.00
51619;DHT22;38518;53.164;5.430;2023-01-16T00:14:06;3.80;1.00
51619;DHT22;38518;53.164;5.430;2023-01-16T00:16:31;4.90;1.00
51619;DHT22;38518;53.164;5.430;2023-01-16T00:18:57;3.70;1.00
51619;DHT22;38518;53.164;5.430;2023-01-16T00:21:24;5.00;1.00
51619;DHT22;38518;53.164;5.430;2023-01-16T00:23:57;4.30;1.00
51619;DHT22;38518;53.164;5.430;2023-01-16T00:26:25;4.20;1.00
51619;DHT22;38518;53.164;5.430;2023-01-16T00:28:50;4.60;1.00
51619;DHT22;38518;53.164;5.430;2023-01-16T00:31:17;4.00;1.00
51619;DHT22;38518;53.164;5.430;2023-01-16T00:33:43;3.60;1.00
51619;DHT22;38518;53.164;5.430;2023-01-16T00:36:10;5.10;1.00
51619;DHT22;38518;53.164;5.430;2023-01-16T00:38:36;4.70;1.00
51619;DHT22;38518;53.164;5.430;2023-01-16T00:41:02;4.30;1.00
51619;DHT22;38518;53.164;5.430;2023-01-16T00:43:28;3.70;1.00
51619;DHT22;38518;53.164;5.430;2023-01-16T00:45:54;5.10;1.00
51619;DHT22;38518;53.164;5.430;2023-01-16T00:48:22;3.90;1.00
51619;DHT22;38518;53.164;5.430;2023-01-16T00:50:48;4.70;1.00
51619;DHT22;38518;53.164;5.430;2023-01-16T00:53:14;5.20;1.00
51619;DHT22;38518;53.164;5.430;2023-01-16T00:55:40;3.80;1.00
51619;DHT22;38518;53.164;5.430;2023-01-16T00:58:08;4.90;1.00
51619;DHT22;38518;53.164;5.430;2023-01-16T01:00:34;3.80;1.00
51619;DHT22;38518;53.164;5.430;2023-01-16T01:03:00;3.70;1.00
51619;DHT22;38518;53.164;5.430;2023-01-16T01:05:30;3.70;1.00
51619;DHT22;38518;53.164;5.430;2023-01-16T01:07:56;3.30;1.00
51619;DHT22;38518;53.164;5.430;2023-01-16T01:10:22;4.10;1.00
51619;DHT22;38518;53.164;5.430;2023-01-16T01:12:47;3.70;1.00
51619;DHT22;38518;53.164;5.430;2023-01-16T01:15:13;3.60;1.00
51619;DHT22;38518;53.164;5.430;2023-01-16T01:17:39;4.00;1.00
51619;DHT22;38518;53.164;5.430;2023-01-16T01:20:06;4.60;1.00
51619;DHT22;38518;53.164;5.430;2023-01-16T01:22:32;3.60;1.00
51619;DHT22;38518;53.164;5.430;2023-01-16T01:24:57;3.70;1.00
51619;DHT22;38518;53.164;5.430;2023-01-16T01:27:23;3.60;1.00
51619;DHT22;38518;53.164;5.430;2023-01-16T01:29:49;4.00;1.00
51619;DHT22;38518;53.164;5.430;2023-01-16T01:32:15;3.70;1.00
51619;DHT22;38518;53.164;5.430;2023-01-16T01:34:41;3.50;1.00
51619;DHT22;38518;53.164;5.430;2023-01-16T01:37:07;3.70;1.00
51619;DHT22;38518;53.164;5.430;2023-01-16T01:39:33;3.70;1.00
51619;DHT22;38518;53.164;5.430;2023-01-16T01:42:00;3.60;1.00
51619;DHT22;38518;53.164;5.430;2023-01-16T01:44:55;3.60;1.00
51619;DHT22;38518;53.164;5.430;2023-01-16T01:47:33;4.80;1.00
51619;DHT22;38518;53.164;5.430;2023-01-16T01:50:02;4.50;1.00
51619;DHT22;38518;53.164;5.430;2023-01-16T01:52:30;4.00;1.00
51619;DHT22;38518;53.164;5.430;2023-01-16T01:55:02;4.00;1.00
51619;DHT22;38518;53.164;5.430;2023-01-16T01:57:41;3.90;1.00
51619;DHT22;38518;53.164;5.430;2023-01-16T02:00:16;3.80;1.00
51619;DHT22;38518;53.164;5.430;2023-01-16T02:02:47;3.80;1.00
51619;DHT22;38518;53.164;5.430;2023-01-16T02:05:21;3.80;1.00
51619;DHT22;38518;53.164;5.430;2023-01-16T02:07:48;4.50;1.00
51619;DHT22;38518;53.164;5.430;2023-01-16T02:10:34;4.50;1.00
51619;DHT22;38518;53.164;5.430;2023-01-16T02:13:03;3.70;1.00
51619;DHT22;38518;53.164;5.430;2023-01-16T02:15:30;4.60;1.00
51619;DHT22;38518;53.164;5.430;2023-01-16T02:17:55;4.00;1.00
51619;DHT22;38518;53.164;5.430;2023-01-16T02:37:16;4.20;1.00
51619;DHT22;38518;53.164;5.430;2023-01-16T02:47:41;3.80;1.00
51619;DHT22;38518;53.164;5.430;2023-01-16T02:50:22;4.00;1.00
51619;DHT22;38518;53.164;5.430;2023-01-16T02:55:46;3.80;1.00
51619;DHT22;38518;53.164;5.430;2023-01-16T02:58:14;3.60;1.00
51619;DHT22;38518;53.164;5.430;2023-01-16T03:00:52;3.90;1.00
51619;DHT22;38518;53.164;5.430;2023-01-16T03:07:41;3.50;1.00
51619;DHT22;38518;53.164;5.430;2023-01-16T03:09:44;3.40;1.00
51619;DHT22;38518;53.164;5.430;2023-01-16T03:12:29;3.50;1.00
51619;DHT22;38518;53.164;5.430;2023-01-16T03:15:25;4.20;1.00
51619;DHT22;38518;53.164;5.430;2023-01-16T03:29:15;3.60;1.00
51619;DHT22;38518;53.164;5.430;2023-01-16T03:37:01;3.80;1.00
51619;DHT22;38518;53.164;5.430;2023-01-16T03:39:37;5.00;9.50
51619;DHT22;38518;53.164;5.430;2023-01-16T03:45:56;4.00;23.10
51619;DHT22;38518;53.164;5.430;2023-01-16T04:11:52;4.00;17.00
51619;DHT22;38518;53.164;5.430;2023-01-16T04:14:21;4.50;11.30
51619;DHT22;38518;53.164;5.430;2023-01-16T04:16:51;4.20;1.00
51619;DHT22;38518;53.164;5.430;2023-01-16T04:19:18;4.30;1.00
51619;DHT22;38518;53.164;5.430;2023-01-16T04:21:46;4.20;1.00
51619;DHT22;38518;53.164;5.430;2023-01-16T04:24:13;4.10;1.00
51619;DHT22;38518;53.164;5.430;2023-01-16T04:26:39;4.70;1.00
51619;DHT22;38518;53.164;5.430;2023-01-16T04:29:05;3.80;1.00
51619;DHT22;38518;53.164;5.430;2023-01-16T04:31:30;4.70;1.00
51619;DHT22;38518;53.164;5.430;2023-01-16T04:33:56;3.90;1.00
51619;DHT22;38518;53.164;5.430;2023-01-16T04:36:28;3.70;1.00
51619;DHT22;38518;53.164;5.430;2023-01-16T04:39:05;4.80;1.00
51619;DHT22;38518;53.164;5.430;2023-01-16T04:41:43;3.70;1.00
51619;DHT22;38518;53.164;5.430;2023-01-16T04:44:21;3.60;1.00
51619;DHT22;38518;53.164;5.430;2023-01-16T04:46:47;3.70;1.00
51619;DHT22;38518;53.164;5.430;2023-01-16T04:49:13;4.10;1.00
51619;DHT22;38518;53.164;5.430;2023-01-16T04:51:39;3.70;1.00
51619;DHT22;38518;53.164;5.430;2023-01-16T04:54:06;3.60;1.00
51619;DHT22;38518;53.164;5.430;2023-01-16T04:56:32;4.10;1.00
51619;DHT22;38518;53.164;5.430;2023-01-16T04:59:09;5.10;1.00
51619;DHT22;38518;53.164;5.430;2023-01-16T05:05:19;3.90;1.00
51619;DHT22;38518;53.164;5.430;2023-01-16T05:07:45;3.80;1.00
51619;DHT22;38518;53.164;5.430;2023-01-16T05:10:16;3.70;1.00
51619;DHT22;38518;53.164;5.430;2023-01-16T05:12:44;2.90;1.00
51619;DHT22;38518;53.164;5.430;2023-01-16T05:15:35;4.20;1.00
51619;DHT22;38518;53.164;5.430;2023-01-16T05:18:10;3.60;1.00
51619;DHT22;38518;53.164;5.430;2023-01-16T05:20:49;3.70;1.00
51619;DHT22;38518;53.164;5.430;2023-01-16T05:23:15;3.60;1.00
51619;DHT22;38518;53.164;5.430;2023-01-16T05:25:41;3.50;1.00
51619;DHT22;38518;53.164;5.430;2023-01-16T05:28:07;4.90;1.00
51619;DHT22;38518;53.164;5.430;2023-01-16T05:30:33;3.80;1.00
51619;DHT22;38518;53.164;5.430;2023-01-16T05:32:59;4.10;1.00
51619;DHT22;38518;53.164;5.430;2023-01-16T05:35:25;4.40;1.00
51619;DHT22;38518;53.164;5.430;2023-01-16T05:37:51;3.50;1.00
51619;DHT22;38518;53.164;5.430;2023-01-16T05:40:18;3.50;1.00
51619;DHT22;38518;53.164;5.430;2023-01-16T05:42:47;3.50;1.00
51619;DHT22;38518;53.164;5.430;2023-01-16T05:45:26;3.80;1.00
51619;DHT22;38518;53.164;5.430;2023-01-16T05:47:52;4.30;1.00
51619;DHT22;38518;53.164;5.430;2023-01-16T05:50:18;3.70;1.00
51619;DHT22;38518;53.164;5.430;2023-01-16T05:52:43;3.60;1.00
51619;DHT22;38518;53.164;5.430;2023-01-16T05:55:09;3.90;1.00
51619;DHT22;38518;53.164;5.430;2023-01-16T05:57:35;3.90;1.00
51619;DHT22;38518;53.164;5.430;2023-01-16T06:00:01;3.60;1.00
51619;DHT22;38518;53.164;5.430;2023-01-16T06:02:27;3.60;1.00
51619;DHT22;38518;53.164;5.430;2023-01-16T06:04:53;3.60;1.00
51619;DHT22;38518;53.164;5.430;2023-01-16T06:07:18;4.20;1.00
51619;DHT22;38518;53.164;5.430;2023-01-16T06:09:44;5.00;14.60
51619;DHT22;38518;53.164;5.430;2023-01-16T06:12:17;3.60;1.00
51619;DHT22;38518;53.164;5.430;2023-01-16T06:14:43;4.10;1.00
51619;DHT22;38518;53.164;5.430;2023-01-16T06:17:10;3.70;6.90
51619;DHT22;38518;53.164;5.430;2023-01-16T06:19:36;4.60;7.20
51619;DHT22;38518;53.164;5.430;2023-01-16T06:22:02;3.90;6.00
51619;DHT22;38518;53.164;5.430;2023-01-16T06:24:28;3.70;14.40
51619;DHT22;38518;53.164;5.430;2023-01-16T06:26:53;4.20;13.10
51619;DHT22;38518;53.164;5.430;2023-01-16T06:29:19;4.60;9.80
51619;DHT22;38518;53.164;5.430;2023-01-16T06:31:45;3.90;12.60
51619;DHT22;38518;53.164;5.430;2023-01-16T06:34:11;3.70;11.40
51619;DHT22;38518;53.164;5.430;2023-01-16T06:36:37;3.70;9.70
51619;DHT22;38518;53.164;5.430;2023-01-16T06:46:14;3.20;1.00
51619;DHT22;38518;53.164;5.430;2023-01-16T06:48:40;4.80;1.00
51619;DHT22;38518;53.164;5.430;2023-01-16T06:51:08;3.50;1.00
51619;DHT22;38518;53.164;5.430;2023-01-16T06:53:35;4.40;1.00
51619;DHT22;38518;53.164;5.430;2023-01-16T06:56:01;2.30;1.00
51619;DHT22;38518;53.164;5.430;2023-01-16T06:58:54;4.10;1.00
51619;DHT22;38518;53.164;5.430;2023-01-16T07:08:04;3.10;1.00
51619;DHT22;38518;53.164;5.430;2023-01-16T07:10:30;3.40;1.00
51619;DHT22;38518;53.164;5.430;2023-01-16T07:13:03;3.20;1.00
51619;DHT22;38518;53.164;5.430;2023-01-16T07:15:32;3.20;1.00
51619;DHT22;38518;53.164;5.430;2023-01-16T07:22:03;3.10;1.00
51619;DHT22;38518;53.164;5.430;2023-01-16T07:27:56;3.00;1.00
51619;DHT22;38518;53.164;5.430;2023-01-16T07:30:22;3.50;1.00
51619;DHT22;38518;53.164;5.430;2023-01-16T07:33:00;3.90;1.00
51619;DHT22;38518;53.164;5.430;2023-01-16T07:35:26;3.60;1.00
51619;DHT22;38518;53.164;5.430;2023-01-16T07:44:43;2.80;1.00
51619;DHT22;38518;53.164;5.430;2023-01-16T07:50:58;3.00;1.00
51619;DHT22;38518;53.164;5.430;2023-01-16T07:53:28;4.10;1.00
51619;DHT22;38518;53.164;5.430;2023-01-16T07:55:57;3.10;1.00
51619;DHT22;38518;53.164;5.430;2023-01-16T07:58:23;4.20;1.00
51619;DHT22;38518;53.164;5.430;2023-01-16T08:00:51;3.00;1.00
51619;DHT22;38518;53.164;5.430;2023-01-16T08:03:19;2.90;1.00
51619;DHT22;38518;53.164;5.430;2023-01-16T08:09:26;3.00;6.70
51619;DHT22;38518;53.164;5.430;2023-01-16T08:11:52;3.20;14.80
51619;DHT22;38518;53.164;5.430;2023-01-16T08:14:18;4.00;15.00
51619;DHT22;38518;53.164;5.430;2023-01-16T08:16:44;3.10;16.30
51619;DHT22;38518;53.164;5.430;2023-01-16T08:19:12;3.30;16.40
51619;DHT22;38518;53.164;5.430;2023-01-16T08:21:38;4.20;20.50
51619;DHT22;38518;53.164;5.430;2023-01-16T08:24:10;3.20;24.50
51619;DHT22;38518;53.164;5.430;2023-01-16T08:26:56;2.60;22.70
51619;DHT22;38518;53.164;5.430;2023-01-16T08:29:23;3.10;25.60
51619;DHT22;38518;53.164;5.430;2023-01-16T08:31:49;3.10;33.80
51619;DHT22;38518;53.164;5.430;2023-01-16T08:34:40;3.30;35.90
51619;DHT22;38518;53.164;5.430;2023-01-16T08:37:17;3.20;42.60
51619;DHT22;38518;53.164;5.430;2023-01-16T08:39:52;3.20;43.10
51619;DHT22;38518;53.164;5.430;2023-01-16T08:42:22;4.40;46.80
51619;DHT22;38518;53.164;5.430;2023-01-16T08:45:11;3.10;54.80
51619;DHT22;38518;53.164;5.430;2023-01-16T08:47:56;3.90;63.30
51619;DHT22;38518;53.164;5.430;2023-01-16T08:50:41;3.40;59.90
51619;DHT22;38518;53.164;5.430;2023-01-16T08:53:25;3.20;65.70
51619;DHT22;38518;53.164;5.430;2023-01-16T08:55:51;4.10;77.10
51619;DHT22;38518;53.164;5.430;2023-01-16T08:58:17;3.60;79.20
51619;DHT22;38518;53.164;5.430;2023-01-16T09:00:46;3.40;78.20
51619;DHT22;38518;53.164;5.430;2023-01-16T09:03:12;4.20;75.10
51619;DHT22;38518;53.164;5.430;2023-01-16T09:05:39;3.90;74.90
51619;DHT22;38518;53.164;5.430;2023-01-16T09:08:04;3.60;82.70
51619;DHT22;38518;53.164;5.430;2023-01-16T09:10:33;3.40;72.00
51619;DHT22;38518;53.164;5.430;2023-01-16T09:12:59;3.50;78.50
51619;DHT22;38518;53.164;5.430;2023-01-16T09:15:43;3.40;70.10
51619;DHT22;38518;53.164;5.430;2023-01-16T09:18:30;5.00;81.00
51619;DHT22;38518;53.164;5.430;2023-01-16T09:21:11;3.50;75.00
51619;DHT22;38518;53.164;5.430;2023-01-16T09:23:39;3.90;49.00
51619;DHT22;38518;53.164;5.430;2023-01-16T09:26:29;4.80;77.60
51619;DHT22;38518;53.164;5.430;2023-01-16T09:29:16;3.70;78.90
51619;DHT22;38518;53.164;5.430;2023-01-16T09:31:53;3.70;83.10
51619;DHT22;38518;53.164;5.430;2023-01-16T09:38:16;3.50;88.60
51619;DHT22;38518;53.164;5.430;2023-01-16T09:41:13;3.80;92.70
51619;DHT22;38518;53.164;5.430;2023-01-16T09:44:02;3.60;93.70
51619;DHT22;38518;53.164;5.430;2023-01-16T09:46:30;3.80;91.30
51619;DHT22;38518;53.164;5.430;2023-01-16T09:52:26;4.50;89.90
51619;DHT22;38518;53.164;5.430;2023-01-16T10:02:35;3.60;93.00
51619;DHT22;38518;53.164;5.430;2023-01-16T10:21:47;5.20;95.40
51619;DHT22;38518;53.164;5.430;2023-01-16T10:30:45;3.60;92.60
51619;DHT22;38518;53.164;5.430;2023-01-16T10:33:47;3.50;92.00
51619;DHT22;38518;53.164;5.430;2023-01-16T10:36:16;3.70;90.00
51619;DHT22;38518;53.164;5.430;2023-01-16T10:38:49;3.60;87.30
51619;DHT22;38518;53.164;5.430;2023-01-16T10:44:33;3.70;76.30
51619;DHT22;38518;53.164;5.430;2023-01-16T10:47:24;3.40;66.30
51619;DHT22;38518;53.164;5.430;2023-01-16T10:50:10;3.50;50.90
51619;DHT22;38518;53.164;5.430;2023-01-16T10:52:37;4.40;48.80
51619;DHT22;38518;53.164;5.430;2023-01-16T10:55:07;4.20;42.80
51619;DHT22;38518;53.164;5.430;2023-01-16T10:57:55;3.20;43.10
51619;DHT22;38518;53.164;5.430;2023-01-16T11:00:45;3.20;40.30
51619;DHT22;38518;53.164;5.430;2023-01-16T11:03:15;3.60;27.70
51619;DHT22;38518;53.164;5.430;2023-01-16T11:05:42;3.30;25.70
51619;DHT22;38518;53.164;5.430;2023-01-16T11:08:17;2.90;30.60
51619;DHT22;38518;53.164;5.430;2023-01-16T11:10:47;3.20;31.10
51619;DHT22;38518;53.164;5.430;2023-01-16T11:16:27;3.50;28.70
51619;DHT22;38518;53.164;5.430;2023-01-16T11:21:54;2.80;45.50
51619;DHT22;38518;53.164;5.430;2023-01-16T11:24:44;2.90;34.90
51619;DHT22;38518;53.164;5.430;2023-01-16T11:27:18;2.90;53.50
51619;DHT22;38518;53.164;5.430;2023-01-16T11:29:58;3.40;51.50
51619;DHT22;38518;53.164;5.430;2023-01-16T11:32:30;2.80;57.20
51619;DHT22;38518;53.164;5.430;2023-01-16T11:35:10;2.80;62.40
51619;DHT22;38518;53.164;5.430;2023-01-16T11:37:37;3.60;70.40
51619;DHT22;38518;53.164;5.430;2023-01-16T11:40:23;3.20;77.00
51619;DHT22;38518;53.164;5.430;2023-01-16T11:42:52;2.90;83.40
51619;DHT22;38518;53.164;5.430;2023-01-16T11:45:57;2.40;90.10
51619;DHT22;38518;53.164;5.430;2023-01-16T11:49:23;4.00;93.80
51619;DHT22;38518;53.164;5.430;2023-01-16T11:52:21;3.20;96.40
51619;DHT22;38518;53.164;5.430;2023-01-16T11:54:58;3.20;96.80
51619;DHT22;38518;53.164;5.430;2023-01-16T12:06:14;2.90;99.90
51619;DHT22;38518;53.164;5.430;2023-01-16T12:09:11;3.30;97.90
51619;DHT22;38518;53.164;5.430;2023-01-16T12:14:40;2.70;98.70
51619;DHT22;38518;53.164;5.430;2023-01-16T12:20:27;2.90;99.90
51619;DHT22;38518;53.164;5.430;2023-01-16T12:52:11;2.90;99.90
51619;DHT22;38518;53.164;5.430;2023-01-16T13:02:18;3.20;99.90
51619;DHT22;38518;53.164;5.430;2023-01-16T13:05:13;4.10;99.90
51619;DHT22;38518;53.164;5.430;2023-01-16T13:08:04;3.20;99.90
51619;DHT22;38518;53.164;5.430;2023-01-16T13:10:40;2.80;99.90
51619;DHT22;38518;53.164;5.430;2023-01-16T13:13:53;3.20;99.90
51619;DHT22;38518;53.164;5.430;2023-01-16T13:19:44;3.00;99.90
51619;DHT22;38518;53.164;5.430;2023-01-16T13:22:28;4.20;99.90
51619;DHT22;38518;53.164;5.430;2023-01-16T13:25:00;2.90;99.90
51619;DHT22;38518;53.164;5.430;2023-01-16T13:41:58;3.30;99.90
51619;DHT22;38518;53.164;5.430;2023-01-16T13:44:30;4.60;99.90
51619;DHT22;38518;53.164;5.430;2023-01-16T13:47:24;3.10;99.90
51619;DHT22;38518;53.164;5.430;2023-01-16T13:50:04;3.40;99.90
51619;DHT22;38518;53.164;5.430;2023-01-16T13:52:33;3.30;99.90
51619;DHT22;38518;53.164;5.430;2023-01-16T13:55:01;4.70;99.90
51619;DHT22;38518;53.164;5.430;2023-01-16T13:57:32;3.10;99.90
51619;DHT22;38518;53.164;5.430;2023-01-16T14:00:00;3.30;99.90
51619;DHT22;38518;53.164;5.430;2023-01-16T14:10:46;3.50;99.90
51619;DHT22;38518;53.164;5.430;2023-01-16T14:13:35;3.60;99.90
51619;DHT22;38518;53.164;5.430;2023-01-16T14:21:52;4.10;99.90
51619;DHT22;38518;53.164;5.430;2023-01-16T14:25:05;3.60;99.90
51619;DHT22;38518;53.164;5.430;2023-01-16T14:27:40;3.30;99.90
51619;DHT22;38518;53.164;5.430;2023-01-16T14:30:31;2.80;99.90
51619;DHT22;38518;53.164;5.430;2023-01-16T14:32:59;3.00;99.90
51619;DHT22;38518;53.164;5.430;2023-01-16T14:35:31;2.90;99.90
51619;DHT22;38518;53.164;5.430;2023-01-16T14:38:23;2.80;99.90
51619;DHT22;38518;53.164;5.430;2023-01-16T14:40:58;2.30;99.90
51619;DHT22;38518;53.164;5.430;2023-01-16T14:44:12;2.90;99.90
51619;DHT22;38518;53.164;5.430;2023-01-16T14:50:17;3.90;99.90
51619;DHT22;38518;53.164;5.430;2023-01-16T14:59:44;2.90;99.90
51619;DHT22;38518;53.164;5.430;2023-01-16T15:01:50;2.90;99.90
51619;DHT22;38518;53.164;5.430;2023-01-16T15:07:55;2.90;99.90
51619;DHT22;38518;53.164;5.430;2023-01-16T15:10:40;3.00;99.90
51619;DHT22;38518;53.164;5.430;2023-01-16T15:13:26;2.90;99.90
51619;DHT22;38518;53.164;5.430;2023-01-16T15:16:01;2.90;99.90
51619;DHT22;38518;53.164;5.430;2023-01-16T15:18:28;2.90;99.90
51619;DHT22;38518;53.164;5.430;2023-01-16T15:21:18;2.90;99.90
51619;DHT22;38518;53.164;5.430;2023-01-16T15:24:03;3.50;99.90
51619;DHT22;38518;53.164;5.430;2023-01-16T15:27:01;2.90;99.90
51619;DHT22;38518;53.164;5.430;2023-01-16T15:29:52;3.10;99.90
51619;DHT22;38518;53.164;5.430;2023-01-16T15:32:25;3.00;99.90
51619;DHT22;38518;53.164;5.430;2023-01-16T15:35:16;3.00;99.90
51619;DHT22;38518;53.164;5.430;2023-01-16T15:37:49;3.70;99.90
51619;DHT22;38518;53.164;5.430;2023-01-16T15:40:25;3.60;99.90
51619;DHT22;38518;53.164;5.430;2023-01-16T15:42:52;3.10;99.90
51619;DHT22;38518;53.164;5.430;2023-01-16T15:45:56;3.10;99.90
51619;DHT22;38518;53.164;5.430;2023-01-16T15:49:04;4.10;99.90
51619;DHT22;38518;53.164;5.430;2023-01-16T15:51:33;3.10;99.90
51619;DHT22;38518;53.164;5.430;2023-01-16T15:53:59;3.30;99.90
51619;DHT22;38518;53.164;5.430;2023-01-16T15:56:41;4.00;99.90
51619;DHT22;38518;53.164;5.430;2023-01-16T15:59:37;3.90;99.90
51619;DHT22;38518;53.164;5.430;2023-01-16T16:02:21;3.10;99.90
51619;DHT22;38518;53.164;5.430;2023-01-16T16:04:55;3.10;99.90
51619;DHT22;38518;53.164;5.430;2023-01-16T16:07:23;3.90;99.90
51619;DHT22;38518;53.164;5.430;2023-01-16T16:09:52;3.10;99.90
51619;DHT22;38518;53.164;5.430;2023-01-16T16:12:20;3.20;99.90
51619;DHT22;38518;53.164;5.430;2023-01-16T16:14:47;3.30;99.90
51619;DHT22;38518;53.164;5.430;2023-01-16T16:17:33;3.60;99.90
51619;DHT22;38518;53.164;5.430;2023-01-16T16:20:35;3.30;99.90
51619;DHT22;38518;53.164;5.430;2023-01-16T16:23:15;3.00;99.90
51619;DHT22;38518;53.164;5.430;2023-01-16T16:26:00;3.10;99.90
51619;DHT22;38518;53.164;5.430;2023-01-16T16:31:02;4.10;99.90
51619;DHT22;38518;53.164;5.430;2023-01-16T16:33:30;4.20;99.90
51619;DHT22;38518;53.164;5.430;2023-01-16T16:35:59;3.90;99.90
51619;DHT22;38518;53.164;5.430;2023-01-16T16:38:49;3.10;99.90
51619;DHT22;38518;53.164;5.430;2023-01-16T16:41:41;2.90;99.90
51619;DHT22;38518;53.164;5.430;2023-01-16T16:44:34;4.00;99.90
51619;DHT22;38518;53.164;5.430;2023-01-16T16:47:00;2.90;99.90
51619;DHT22;38518;53.164;5.430;2023-01-16T16:49:27;3.10;99.90
51619;DHT22;38518;53.164;5.430;2023-01-16T16:51:54;4.00;99.90
51619;DHT22;38518;53.164;5.430;2023-01-16T16:54:25;2.90;99.90
51619;DHT22;38518;53.164;5.430;2023-01-16T16:56:54;4.10;99.90
51619;DHT22;38518;53.164;5.430;2023-01-16T16:59:27;3.00;99.90
51619;DHT22;38518;53.164;5.430;2023-01-16T17:01:58;3.00;99.90
51619;DHT22;38518;53.164;5.430;2023-01-16T17:04:34;3.00;99.90
51619;DHT22;38518;53.164;5.430;2023-01-16T17:07:00;3.00;99.90
51619;DHT22;38518;53.164;5.430;2023-01-16T17:09:26;3.20;99.90
51619;DHT22;38518;53.164;5.430;2023-01-16T17:11:59;3.10;99.90
51619;DHT22;38518;53.164;5.430;2023-01-16T17:14:31;3.00;99.90
51619;DHT22;38518;53.164;5.430;2023-01-16T17:16:56;3.00;99.90
51619;DHT22;38518;53.164;5.430;2023-01-16T17:19:29;3.20;99.90
51619;DHT22;38518;53.164;5.430;2023-01-16T17:21:55;3.00;99.90
51619;DHT22;38518;53.164;5.430;2023-01-16T17:24:21;3.10;99.90
51619;DHT22;38518;53.164;5.430;2023-01-16T17:26:47;3.20;99.90
51619;DHT22;38518;53.164;5.430;2023-01-16T17:29:13;3.00;99.90
51619;DHT22;38518;53.164;5.430;2023-01-16T17:31:42;2.80;99.90
51619;DHT22;38518;53.164;5.430;2023-01-16T17:34:12;2.90;99.90
51619;DHT22;38518;53.164;5.430;2023-01-16T17:36:40;2.80;99.90
51619;DHT22;38518;53.164;5.430;2023-01-16T17:39:05;3.00;99.90
51619;DHT22;38518;53.164;5.430;2023-01-16T17:41:35;2.90;99.90
51619;DHT22;38518;53.164;5.430;2023-01-16T17:44:14;2.90;99.90
51619;DHT22;38518;53.164;5.430;2023-01-16T17:46:59;3.10;99.90
51619;DHT22;38518;53.164;5.430;2023-01-16T17:49:25;1.70;99.90
51619;DHT22;38518;53.164;5.430;2023-01-16T17:51:51;3.30;99.90
51619;DHT22;38518;53.164;5.430;2023-01-16T17:54:16;2.40;99.90
51619;DHT22;38518;53.164;5.430;2023-01-16T17:57:01;3.00;99.90
51619;DHT22;38518;53.164;5.430;2023-01-16T17:59:29;2.90;99.90
51619;DHT22;38518;53.164;5.430;2023-01-16T18:01:56;3.20;99.90
51619;DHT22;38518;53.164;5.430;2023-01-16T18:04:27;3.80;99.90
51619;DHT22;38518;53.164;5.430;2023-01-16T18:07:01;3.20;99.90
51619;DHT22;38518;53.164;5.430;2023-01-16T18:13:23;3.10;99.90
51619;DHT22;38518;53.164;5.430;2023-01-16T18:16:12;3.80;99.90
51619;DHT22;38518;53.164;5.430;2023-01-16T18:29:10;3.20;99.90
51619;DHT22;38518;53.164;5.430;2023-01-16T18:31:41;2.90;99.90
51619;DHT22;38518;53.164;5.430;2023-01-16T18:34:28;2.90;99.90
51619;DHT22;38518;53.164;5.430;2023-01-16T18:36:59;1.70;99.90
51619;DHT22;38518;53.164;5.430;2023-01-16T18:39:36;3.20;99.90
51619;DHT22;38518;53.164;5.430;2023-01-16T18:42:24;3.10;99.90
51619;DHT22;38518;53.164;5.430;2023-01-16T18:49:32;3.00;99.90
51619;DHT22;38518;53.164;5.430;2023-01-16T18:52:20;3.10;99.90
51619;DHT22;38518;53.164;5.430;2023-01-16T18:58:39;3.30;99.90
51619;DHT22;38518;53.164;5.430;2023-01-16T19:01:53;3.70;99.90
51619;DHT22;38518;53.164;5.430;2023-01-16T19:04:34;3.20;99.90
51619;DHT22;38518;53.164;5.430;2023-01-16T19:07:36;3.30;99.90
51619;DHT22;38518;53.164;5.430;2023-01-16T19:10:21;3.60;99.90
51619;DHT22;38518;53.164;5.430;2023-01-16T19:12:48;3.40;99.90
51619;DHT22;38518;53.164;5.430;2023-01-16T19:15:16;3.30;99.90
51619;DHT22;38518;53.164;5.430;2023-01-16T19:17:43;3.30;99.90
51619;DHT22;38518;53.164;5.430;2023-01-16T19:20:24;3.40;99.90
51619;DHT22;38518;53.164;5.430;2023-01-16T19:22:59;3.30;99.90
51619;DHT22;38518;53.164;5.430;2023-01-16T19:25:28;3.90;99.90
51619;DHT22;38518;53.164;5.430;2023-01-16T19:27:57;3.50;99.90
51619;DHT22;38518;53.164;5.430;2023-01-16T19:34:15;3.70;99.90
51619;DHT22;38518;53.164;5.430;2023-01-16T19:36:41;3.50;99.90
51619;DHT22;38518;53.164;5.430;2023-01-16T19:42:48;3.40;99.90
51619;DHT22;38518;53.164;5.430;2023-01-16T19:45:41;3.40;99.90
51619;DHT22;38518;53.164;5.430;2023-01-16T19:48:37;3.50;99.90
51619;DHT22;38518;53.164;5.430;2023-01-16T19:51:04;3.40;99.90
51619;DHT22;38518;53.164;5.430;2023-01-16T19:53:41;3.40;99.90
51619;DHT22;38518;53.164;5.430;2023-01-16T19:56:07;2.90;99.90
51619;DHT22;38518;53.164;5.430;2023-01-16T19:58:42;4.10;99.90
51619;DHT22;38518;53.164;5.430;2023-01-16T20:01:14;4.00;99.90
51619;DHT22;38518;53.164;5.430;2023-01-16T20:03:50;4.10;99.90
51619;DHT22;38518;53.164;5.430;2023-01-16T20:06:19;4.20;99.90
51619;DHT22;38518;53.164;5.430;2023-01-16T20:09:06;3.50;99.90
51619;DHT22;38518;53.164;5.430;2023-01-16T20:12:14;4.00;99.90
51619;DHT22;38518;53.164;5.430;2023-01-16T20:15:07;3.70;99.90
51619;DHT22;38518;53.164;5.430;2023-01-16T20:17:37;4.90;99.90
51619;DHT22;38518;53.164;5.430;2023-01-16T20:20:04;3.70;99.90
51619;DHT22;38518;53.164;5.430;2023-01-16T20:26:19;4.70;96.40
51619;DHT22;38518;53.164;5.430;2023-01-16T20:28:48;3.50;99.50
51619;DHT22;38518;53.164;5.430;2023-01-16T20:31:41;3.80;96.10
51619;DHT22;38518;53.164;5.430;2023-01-16T20:34:30;3.90;93.50
51619;DHT22;38518;53.164;5.430;2023-01-16T20:37:03;3.90;92.30
51619;DHT22;38518;53.164;5.430;2023-01-16T20:39:33;4.10;91.40
51619;DHT22;38518;53.164;5.430;2023-01-16T20:42:12;3.60;85.20
51619;DHT22;38518;53.164;5.430;2023-01-16T20:48:38;3.60;80.30
51619;DHT22;38518;53.164;5.430;2023-01-16T20:51:04;3.70;88.30
51619;DHT22;38518;53.164;5.430;2023-01-16T20:53:32;3.90;77.90
51619;DHT22;38518;53.164;5.430;2023-01-16T20:56:04;3.80;60.60
51619;DHT22;38518;53.164;5.430;2023-01-16T20:58:31;3.60;46.60
51619;DHT22;38518;53.164;5.430;2023-01-16T21:00:58;3.80;48.90
51619;DHT22;38518;53.164;5.430;2023-01-16T21:03:24;3.70;41.30
51619;DHT22;38518;53.164;5.430;2023-01-16T21:05:50;3.60;42.50
51619;DHT22;38518;53.164;5.430;2023-01-16T21:08:17;3.60;43.80
51619;DHT22;38518;53.164;5.430;2023-01-16T21:10:43;3.60;36.00
51619;DHT22;38518;53.164;5.430;2023-01-16T21:13:11;3.70;40.30
51619;DHT22;38518;53.164;5.430;2023-01-16T21:15:58;3.60;35.80
51619;DHT22;38518;53.164;5.430;2023-01-16T21:19:00;2.50;45.70
51619;DHT22;38518;53.164;5.430;2023-01-16T21:21:47;3.80;54.40
51619;DHT22;38518;53.164;5.430;2023-01-16T21:24:14;4.80;62.80
51619;DHT22;38518;53.164;5.430;2023-01-16T21:26:42;3.90;57.20
51619;DHT22;38518;53.164;5.430;2023-01-16T21:29:08;3.80;61.30
51619;DHT22;38518;53.164;5.430;2023-01-16T21:31:34;3.80;53.60
51619;DHT22;38518;53.164;5.430;2023-01-16T21:34:00;3.90;52.40